sensor_id;sensor_type;location;lat;lon;timestamp;pressure;altitude;pressure_sealevel;temperature;humidity
37200;BME280;23096;50.892;16.746;2023-05-25T00:02:02;99914.77;;;10.90;64.67
37200;BME280;23096;50.892;16.746;2023-05-25T00:04:31;99913.58;;;10.89;64.74
37200;BME280;23096;50.892;16.746;2023-05-25T00:07:02;99908.64;;;10.88;64.72
37200;BME280;23096;50.892;16.746;2023-05-25T00:09:28;99910.22;;;10.86;64.87
37200;BME280;23096;50.892;16.746;2023-05-25T00:11:54;99909.20;;;10.85;64.83
37200;BME280;23096;50.892;16.746;2023-05-25T00:14:20;99909.97;;;10.82;64.70
37200;BME280;23096;50.892;16.746;2023-05-25T00:16:45;99909.02;;;10.78;64.77
37200;BME280;23096;50.892;16.746;2023-05-25T00:19:13;99913.53;;;10.77;64.86
37200;BME280;23096;50.892;16.746;2023-05-25T00:21:39;99910.61;;;10.76;64.90
37200;BME280;23096;50.892;16.746;2023-05-25T00:24:06;99909.25;;;10.76;64.92
37200;BME280;23096;50.892;16.746;2023-05-25T00:26:33;99907.39;;;10.74;64.78
37200;BME280;23096;50.892;16.746;2023-05-25T00:28:58;99911.05;;;10.72;64.89
37200;BME280;23096;50.892;16.746;2023-05-25T00:31:26;99914.52;;;10.70;64.78
37200;BME280;23096;50.892;16.746;2023-05-25T00:33:52;99913.09;;;10.66;64.83
37200;BME280;23096;50.892;16.746;2023-05-25T00:36:18;99910.41;;;10.62;64.82
37200;BME280;23096;50.892;16.746;2023-05-25T00:38:44;99913.55;;;10.60;64.80
37200;BME280;23096;50.892;16.746;2023-05-25T00:41:11;99917.16;;;10.60;64.91
37200;BME280;23096;50.892;16.746;2023-05-25T00:43:37;99915.13;;;10.58;64.75
37200;BME280;23096;50.892;16.746;2023-05-25T00:46:03;99915.17;;;10.56;64.93
37200;BME280;23096;50.892;16.746;2023-05-25T00:48:28;99909.86;;;10.55;64.99
37200;BME280;23096;50.892;16.746;2023-05-25T00:50:54;99917.13;;;10.53;64.95
37200;BME280;23096;50.892;16.746;2023-05-25T00:53:25;99912.20;;;10.51;64.95
37200;BME280;23096;50.892;16.746;2023-05-25T00:56:09;99916.85;;;10.50;64.96
37200;BME280;23096;50.892;16.746;2023-05-25T00:58:38;99914.98;;;10.49;64.98
37200;BME280;23096;50.892;16.746;2023-05-25T01:01:08;99915.05;;;10.46;65.03
37200;BME280;23096;50.892;16.746;2023-05-25T01:03:39;99919.42;;;10.41;65.04
37200;BME280;23096;50.892;16.746;2023-05-25T01:06:10;99917.29;;;10.36;65.04
37200;BME280;23096;50.892;16.746;2023-05-25T01:08:39;99920.96;;;10.33;65.04
37200;BME280;23096;50.892;16.746;2023-05-25T01:11:07;99928.91;;;10.30;65.06
37200;BME280;23096;50.892;16.746;2023-05-25T01:13:37;99937.58;;;10.25;65.04
37200;BME280;23096;50.892;16.746;2023-05-25T01:16:04;99928.57;;;10.20;65.02
37200;BME280;23096;50.892;16.746;2023-05-25T01:18:31;99934.64;;;10.17;65.16
37200;BME280;23096;50.892;16.746;2023-05-25T01:21:03;99927.28;;;10.16;65.16
37200;BME280;23096;50.892;16.746;2023-05-25T01:23:43;99933.97;;;10.16;65.25
37200;BME280;23096;50.892;16.746;2023-05-25T01:26:14;99930.23;;;10.14;65.32
37200;BME280;23096;50.892;16.746;2023-05-25T01:28:45;99925.13;;;10.12;65.33
37200;BME280;23096;50.892;16.746;2023-05-25T01:31:12;99927.52;;;10.13;65.37
37200;BME280;23096;50.892;16.746;2023-05-25T01:33:41;99929.17;;;10.15;65.43
37200;BME280;23096;50.892;16.746;2023-05-25T01:36:08;99931.90;;;10.17;65.44
37200;BME280;23096;50.892;16.746;2023-05-25T01:38:35;99934.10;;;10.18;65.53
37200;BME280;23096;50.892;16.746;2023-05-25T01:41:02;99935.44;;;10.21;65.58
37200;BME280;23096;50.892;16.746;2023-05-25T01:43:27;99931.31;;;10.21;65.52
37200;BME280;23096;50.892;16.746;2023-05-25T01:45:59;99934.55;;;10.22;65.56
37200;BME280;23096;50.892;16.746;2023-05-25T01:48:48;99942.32;;;10.20;65.53
37200;BME280;23096;50.892;16.746;2023-05-25T01:51:38;99941.39;;;10.15;65.55
37200;BME280;23096;50.892;16.746;2023-05-25T01:54:12;99943.34;;;10.11;65.49
37200;BME280;23096;50.892;16.746;2023-05-25T01:56:42;99939.62;;;10.08;65.58
37200;BME280;23096;50.892;16.746;2023-05-25T01:59:12;99939.44;;;10.09;65.58
37200;BME280;23096;50.892;16.746;2023-05-25T02:01:41;99935.02;;;10.06;65.51
37200;BME280;23096;50.892;16.746;2023-05-25T02:04:07;99933.35;;;10.04;65.62
37200;BME280;23096;50.892;16.746;2023-05-25T02:06:37;99934.70;;;10.05;65.70
37200;BME280;23096;50.892;16.746;2023-05-25T02:09:04;99934.70;;;10.04;65.65
37200;BME280;23096;50.892;16.746;2023-05-25T02:11:29;99934.38;;;10.04;65.64
37200;BME280;23096;50.892;16.746;2023-05-25T02:13:55;99932.48;;;10.04;65.65
37200;BME280;23096;50.892;16.746;2023-05-25T02:16:21;99932.88;;;10.01;65.68
37200;BME280;23096;50.892;16.746;2023-05-25T02:18:46;99934.99;;;9.99;65.66
37200;BME280;23096;50.892;16.746;2023-05-25T02:21:12;99936.27;;;9.94;65.77
37200;BME280;23096;50.892;16.746;2023-05-25T02:23:37;99930.12;;;9.92;65.74
37200;BME280;23096;50.892;16.746;2023-05-25T02:26:04;99931.67;;;9.92;65.79
37200;BME280;23096;50.892;16.746;2023-05-25T02:28:32;99936.50;;;9.91;65.82
37200;BME280;23096;50.892;16.746;2023-05-25T02:30:57;99935.63;;;9.91;65.87
37200;BME280;23096;50.892;16.746;2023-05-25T02:33:23;99928.77;;;9.92;65.85
37200;BME280;23096;50.892;16.746;2023-05-25T02:35:49;99931.86;;;9.92;65.85
37200;BME280;23096;50.892;16.746;2023-05-25T02:38:15;99934.58;;;9.92;65.95
37200;BME280;23096;50.892;16.746;2023-05-25T02:40:40;99932.51;;;9.94;65.82
37200;BME280;23096;50.892;16.746;2023-05-25T02:43:06;99937.17;;;9.92;65.80
37200;BME280;23096;50.892;16.746;2023-05-25T02:45:32;99938.30;;;9.87;65.84
37200;BME280;23096;50.892;16.746;2023-05-25T02:47:57;99939.39;;;9.84;65.88
37200;BME280;23096;50.892;16.746;2023-05-25T02:50:23;99940.13;;;9.81;65.88
37200;BME280;23096;50.892;16.746;2023-05-25T02:52:51;99941.80;;;9.82;65.88
37200;BME280;23096;50.892;16.746;2023-05-25T02:55:16;99943.52;;;9.84;65.92
37200;BME280;23096;50.892;16.746;2023-05-25T02:57:43;99943.20;;;9.81;65.78
37200;BME280;23096;50.892;16.746;2023-05-25T03:00:10;99940.20;;;9.75;65.86
37200;BME280;23096;50.892;16.746;2023-05-25T03:02:36;99944.00;;;9.75;65.87
37200;BME280;23096;50.892;16.746;2023-05-25T03:05:03;99948.48;;;9.74;65.99
37200;BME280;23096;50.892;16.746;2023-05-25T03:07:29;99953.08;;;9.75;66.03
37200;BME280;23096;50.892;16.746;2023-05-25T03:09:54;99957.02;;;9.76;66.03
37200;BME280;23096;50.892;16.746;2023-05-25T03:12:20;99960.30;;;9.74;66.05
37200;BME280;23096;50.892;16.746;2023-05-25T03:14:46;99963.58;;;9.73;66.10
37200;BME280;23096;50.892;16.746;2023-05-25T03:17:11;99966.55;;;9.70;66.08
37200;BME280;23096;50.892;16.746;2023-05-25T03:19:37;99965.05;;;9.68;66.10
37200;BME280;23096;50.892;16.746;2023-05-25T03:22:02;99968.02;;;9.64;66.09
37200;BME280;23096;50.892;16.746;2023-05-25T03:24:28;99969.45;;;9.62;66.17
37200;BME280;23096;50.892;16.746;2023-05-25T03:26:56;99971.01;;;9.61;66.22
37200;BME280;23096;50.892;16.746;2023-05-25T03:29:22;99974.98;;;9.58;66.18
37200;BME280;23096;50.892;16.746;2023-05-25T03:31:47;99972.48;;;9.54;66.17
37200;BME280;23096;50.892;16.746;2023-05-25T03:34:13;99973.86;;;9.53;66.24
37200;BME280;23096;50.892;16.746;2023-05-25T03:36:39;99979.69;;;9.53;66.29
37200;BME280;23096;50.892;16.746;2023-05-25T03:39:05;99983.29;;;9.54;66.38
37200;BME280;23096;50.892;16.746;2023-05-25T03:41:31;99984.70;;;9.51;66.32
37200;BME280;23096;50.892;16.746;2023-05-25T03:43:57;99990.17;;;9.52;66.41
37200;BME280;23096;50.892;16.746;2023-05-25T03:46:22;99991.48;;;9.56;66.52
37200;BME280;23096;50.892;16.746;2023-05-25T03:48:48;99993.45;;;9.61;66.50
37200;BME280;23096;50.892;16.746;2023-05-25T03:51:13;99997.58;;;9.62;66.47
37200;BME280;23096;50.892;16.746;2023-05-25T03:53:39;99996.91;;;9.60;66.48
37200;BME280;23096;50.892;16.746;2023-05-25T03:56:06;99998.45;;;9.60;66.57
37200;BME280;23096;50.892;16.746;2023-05-25T03:58:32;99999.77;;;9.64;66.66
37200;BME280;23096;50.892;16.746;2023-05-25T04:00:57;100006.89;;;9.68;66.74
37200;BME280;23096;50.892;16.746;2023-05-25T04:03:23;100009.05;;;9.72;66.79
37200;BME280;23096;50.892;16.746;2023-05-25T04:05:48;100012.94;;;9.76;66.80
37200;BME280;23096;50.892;16.746;2023-05-25T04:08:15;100015.61;;;9.81;66.81
37200;BME280;23096;50.892;16.746;2023-05-25T04:10:46;100013.34;;;9.83;66.89
37200;BME280;23096;50.892;16.746;2023-05-25T04:13:12;100011.90;;;9.87;66.83
37200;BME280;23096;50.892;16.746;2023-05-25T04:15:38;100013.57;;;9.90;66.93
37200;BME280;23096;50.892;16.746;2023-05-25T04:18:11;100017.27;;;9.94;66.95
37200;BME280;23096;50.892;16.746;2023-05-25T04:20:36;100020.30;;;9.98;66.95
37200;BME280;23096;50.892;16.746;2023-05-25T04:23:03;100018.36;;;10.01;67.06
37200;BME280;23096;50.892;16.746;2023-05-25T04:25:29;100018.48;;;10.04;67.02
37200;BME280;23096;50.892;16.746;2023-05-25T04:27:57;100022.88;;;10.08;67.03
37200;BME280;23096;50.892;16.746;2023-05-25T04:30:38;100021.65;;;10.09;67.00
37200;BME280;23096;50.892;16.746;2023-05-25T04:33:26;100023.85;;;10.11;67.01
37200;BME280;23096;50.892;16.746;2023-05-25T04:36:12;100030.89;;;10.11;66.99
37200;BME280;23096;50.892;16.746;2023-05-25T04:38:39;100032.27;;;10.11;67.04
37200;BME280;23096;50.892;16.746;2023-05-25T04:41:06;100033.42;;;10.13;67.07
37200;BME280;23096;50.892;16.746;2023-05-25T04:43:33;100037.87;;;10.14;67.07
37200;BME280;23096;50.892;16.746;2023-05-25T04:45:59;100038.18;;;10.16;67.12
37200;BME280;23096;50.892;16.746;2023-05-25T04:48:25;100039.02;;;10.17;67.11
37200;BME280;23096;50.892;16.746;2023-05-25T04:50:53;100038.18;;;10.16;67.10
37200;BME280;23096;50.892;16.746;2023-05-25T04:53:21;100032.34;;;10.17;67.16
37200;BME280;23096;50.892;16.746;2023-05-25T04:55:47;100032.77;;;10.21;67.22
37200;BME280;23096;50.892;16.746;2023-05-25T04:58:14;100033.87;;;10.27;67.26
37200;BME280;23096;50.892;16.746;2023-05-25T05:00:40;100034.33;;;10.32;67.28
37200;BME280;23096;50.892;16.746;2023-05-25T05:03:05;100032.20;;;10.36;67.30
37200;BME280;23096;50.892;16.746;2023-05-25T05:05:32;100034.77;;;10.36;67.22
37200;BME280;23096;50.892;16.746;2023-05-25T05:08:00;100037.67;;;10.37;67.17
37200;BME280;23096;50.892;16.746;2023-05-25T05:10:28;100036.41;;;10.40;67.18
37200;BME280;23096;50.892;16.746;2023-05-25T05:12:55;100036.17;;;10.44;67.25
37200;BME280;23096;50.892;16.746;2023-05-25T05:15:21;100034.73;;;10.47;67.29
37200;BME280;23096;50.892;16.746;2023-05-25T05:17:48;100035.90;;;10.50;67.24
37200;BME280;23096;50.892;16.746;2023-05-25T05:20:13;100037.90;;;10.52;67.18
37200;BME280;23096;50.892;16.746;2023-05-25T05:22:39;100040.42;;;10.55;67.21
37200;BME280;23096;50.892;16.746;2023-05-25T05:25:05;100040.92;;;10.56;67.23
37200;BME280;23096;50.892;16.746;2023-05-25T05:27:32;100043.58;;;10.61;67.26
37200;BME280;23096;50.892;16.746;2023-05-25T05:30:06;100041.27;;;10.64;67.24
37200;BME280;23096;50.892;16.746;2023-05-25T05:32:32;100042.93;;;10.68;67.25
37200;BME280;23096;50.892;16.746;2023-05-25T05:34:59;100040.63;;;10.71;67.18
37200;BME280;23096;50.892;16.746;2023-05-25T05:37:51;100040.71;;;10.75;67.25
37200;BME280;23096;50.892;16.746;2023-05-25T05:40:17;100039.84;;;10.77;67.31
37200;BME280;23096;50.892;16.746;2023-05-25T05:42:43;100043.73;;;10.79;67.32
37200;BME280;23096;50.892;16.746;2023-05-25T05:45:09;100043.85;;;10.83;67.40
37200;BME280;23096;50.892;16.746;2023-05-25T05:47:36;100043.58;;;10.87;67.46
37200;BME280;23096;50.892;16.746;2023-05-25T05:50:01;100041.73;;;10.93;67.43
37200;BME280;23096;50.892;16.746;2023-05-25T05:52:28;100040.92;;;10.99;67.50
37200;BME280;23096;50.892;16.746;2023-05-25T05:54:54;100042.37;;;11.04;67.62
37200;BME280;23096;50.892;16.746;2023-05-25T05:57:19;100038.29;;;11.10;67.63
37200;BME280;23096;50.892;16.746;2023-05-25T05:59:46;100042.95;;;11.17;67.58
37200;BME280;23096;50.892;16.746;2023-05-25T06:02:11;100047.17;;;11.20;67.63
37200;BME280;23096;50.892;16.746;2023-05-25T06:04:37;100042.34;;;11.21;67.66
37200;BME280;23096;50.892;16.746;2023-05-25T06:07:03;100048.43;;;11.26;67.64
37200;BME280;23096;50.892;16.746;2023-05-25T06:09:28;100049.70;;;11.31;67.67
37200;BME280;23096;50.892;16.746;2023-05-25T06:11:57;100054.95;;;11.35;67.68
37200;BME280;23096;50.892;16.746;2023-05-25T06:14:23;100058.22;;;11.35;67.60
37200;BME280;23096;50.892;16.746;2023-05-25T06:16:48;100062.48;;;11.37;67.65
37200;BME280;23096;50.892;16.746;2023-05-25T06:19:15;100064.00;;;11.38;67.70
37200;BME280;23096;50.892;16.746;2023-05-25T06:21:41;100065.94;;;11.36;67.68
37200;BME280;23096;50.892;16.746;2023-05-25T06:24:07;100066.45;;;11.36;67.65
37200;BME280;23096;50.892;16.746;2023-05-25T06:26:32;100066.00;;;11.33;67.63
37200;BME280;23096;50.892;16.746;2023-05-25T06:28:58;100068.02;;;11.36;67.85
37200;BME280;23096;50.892;16.746;2023-05-25T06:31:24;100067.52;;;11.42;67.77
37200;BME280;23096;50.892;16.746;2023-05-25T06:33:50;100067.66;;;11.51;67.86
37200;BME280;23096;50.892;16.746;2023-05-25T06:36:15;100069.87;;;11.59;67.99
37200;BME280;23096;50.892;16.746;2023-05-25T06:38:41;100068.98;;;11.68;68.02
37200;BME280;23096;50.892;16.746;2023-05-25T06:41:07;100064.75;;;11.81;68.22
37200;BME280;23096;50.892;16.746;2023-05-25T06:43:34;100064.88;;;11.90;68.16
37200;BME280;23096;50.892;16.746;2023-05-25T06:46:08;100069.21;;;11.96;68.21
37200;BME280;23096;50.892;16.746;2023-05-25T06:48:37;100068.15;;;12.05;68.25
37200;BME280;23096;50.892;16.746;2023-05-25T06:51:04;100062.70;;;12.15;68.28
37200;BME280;23096;50.892;16.746;2023-05-25T06:53:30;100060.35;;;12.27;68.32
37200;BME280;23096;50.892;16.746;2023-05-25T06:55:55;100059.91;;;12.37;68.40
37200;BME280;23096;50.892;16.746;2023-05-25T06:58:21;100062.23;;;12.47;68.42
37200;BME280;23096;50.892;16.746;2023-05-25T07:00:46;100063.38;;;12.56;68.42
37200;BME280;23096;50.892;16.746;2023-05-25T07:03:12;100056.86;;;12.61;68.32
37200;BME280;23096;50.892;16.746;2023-05-25T07:05:38;100053.60;;;12.67;68.37
37200;BME280;23096;50.892;16.746;2023-05-25T07:08:03;100051.23;;;12.72;68.29
37200;BME280;23096;50.892;16.746;2023-05-25T07:10:29;100049.70;;;12.77;68.31
37200;BME280;23096;50.892;16.746;2023-05-25T07:12:54;100050.88;;;12.84;68.26
37200;BME280;23096;50.892;16.746;2023-05-25T07:15:20;100049.33;;;12.90;68.38
37200;BME280;23096;50.892;16.746;2023-05-25T07:17:47;100053.70;;;12.99;68.27
37200;BME280;23096;50.892;16.746;2023-05-25T07:20:12;100055.65;;;13.04;68.23
37200;BME280;23096;50.892;16.746;2023-05-25T07:22:38;100056.20;;;13.08;68.21
37200;BME280;23096;50.892;16.746;2023-05-25T07:25:04;100058.03;;;13.11;68.05
37200;BME280;23096;50.892;16.746;2023-05-25T07:27:30;100059.27;;;13.16;68.12
37200;BME280;23096;50.892;16.746;2023-05-25T07:29:58;100056.20;;;13.27;68.23
37200;BME280;23096;50.892;16.746;2023-05-25T07:32:23;100055.65;;;13.40;68.11
37200;BME280;23096;50.892;16.746;2023-05-25T07:34:48;100054.28;;;13.50;68.04
37200;BME280;23096;50.892;16.746;2023-05-25T07:37:14;100053.36;;;13.58;67.91
37200;BME280;23096;50.892;16.746;2023-05-25T07:39:41;100051.70;;;13.67;67.96
37200;BME280;23096;50.892;16.746;2023-05-25T07:42:06;100052.17;;;13.74;67.69
37200;BME280;23096;50.892;16.746;2023-05-25T07:44:32;100055.82;;;13.84;67.66
37200;BME280;23096;50.892;16.746;2023-05-25T07:46:57;100061.81;;;13.96;67.60
37200;BME280;23096;50.892;16.746;2023-05-25T07:49:23;100064.14;;;14.04;67.55
37200;BME280;23096;50.892;16.746;2023-05-25T07:51:48;100065.27;;;14.07;67.39
37200;BME280;23096;50.892;16.746;2023-05-25T07:54:14;100062.33;;;14.07;67.44
37200;BME280;23096;50.892;16.746;2023-05-25T07:56:42;100060.38;;;14.09;67.28
37200;BME280;23096;50.892;16.746;2023-05-25T07:59:07;100056.92;;;14.13;67.28
37200;BME280;23096;50.892;16.746;2023-05-25T08:01:34;100059.16;;;14.19;67.23
37200;BME280;23096;50.892;16.746;2023-05-25T08:04:00;100058.52;;;14.23;67.32
37200;BME280;23096;50.892;16.746;2023-05-25T08:06:25;100056.48;;;14.27;67.25
37200;BME280;23096;50.892;16.746;2023-05-25T08:08:51;100062.21;;;14.26;67.04
37200;BME280;23096;50.892;16.746;2023-05-25T08:11:21;100062.49;;;14.28;67.27
37200;BME280;23096;50.892;16.746;2023-05-25T08:13:47;100061.31;;;14.27;66.95
37200;BME280;23096;50.892;16.746;2023-05-25T08:16:13;100057.98;;;14.28;67.03
37200;BME280;23096;50.892;16.746;2023-05-25T08:18:38;100054.90;;;14.42;67.24
37200;BME280;23096;50.892;16.746;2023-05-25T08:21:08;100058.11;;;14.55;67.32
37200;BME280;23096;50.892;16.746;2023-05-25T08:23:33;100062.66;;;14.64;67.02
37200;BME280;23096;50.892;16.746;2023-05-25T08:25:59;100062.71;;;14.62;66.93
37200;BME280;23096;50.892;16.746;2023-05-25T08:28:24;100062.73;;;14.62;66.84
37200;BME280;23096;50.892;16.746;2023-05-25T08:30:50;100061.06;;;14.65;66.81
37200;BME280;23096;50.892;16.746;2023-05-25T08:33:16;100056.21;;;14.70;66.81
37200;BME280;23096;50.892;16.746;2023-05-25T08:35:42;100057.38;;;14.76;66.75
37200;BME280;23096;50.892;16.746;2023-05-25T08:38:08;100057.76;;;14.85;66.94
37200;BME280;23096;50.892;16.746;2023-05-25T08:40:33;100060.71;;;14.94;66.89
37200;BME280;23096;50.892;16.746;2023-05-25T08:42:59;100057.27;;;14.98;66.66
37200;BME280;23096;50.892;16.746;2023-05-25T08:45:25;100051.45;;;14.96;66.52
37200;BME280;23096;50.892;16.746;2023-05-25T08:47:53;100054.54;;;14.97;66.40
37200;BME280;23096;50.892;16.746;2023-05-25T08:50:24;100052.15;;;14.96;66.24
37200;BME280;23096;50.892;16.746;2023-05-25T08:52:52;100050.15;;;14.94;66.18
37200;BME280;23096;50.892;16.746;2023-05-25T08:55:19;100050.62;;;14.90;66.24
37200;BME280;23096;50.892;16.746;2023-05-25T09:00:16;100050.23;;;15.10;66.30
37200;BME280;23096;50.892;16.746;2023-05-25T09:02:50;100053.36;;;15.23;66.25
37200;BME280;23096;50.892;16.746;2023-05-25T09:05:19;100056.15;;;15.27;65.99
37200;BME280;23096;50.892;16.746;2023-05-25T09:07:45;100059.77;;;15.32;65.77
37200;BME280;23096;50.892;16.746;2023-05-25T09:10:11;100062.47;;;15.34;65.68
37200;BME280;23096;50.892;16.746;2023-05-25T09:12:37;100068.61;;;15.37;65.55
37200;BME280;23096;50.892;16.746;2023-05-25T09:15:04;100071.98;;;15.39;65.47
37200;BME280;23096;50.892;16.746;2023-05-25T09:17:30;100076.65;;;15.44;65.49
37200;BME280;23096;50.892;16.746;2023-05-25T09:19:56;100074.68;;;15.49;65.52
37200;BME280;23096;50.892;16.746;2023-05-25T09:22:23;100075.23;;;15.49;65.36
37200;BME280;23096;50.892;16.746;2023-05-25T09:24:48;100073.23;;;15.47;65.17
37200;BME280;23096;50.892;16.746;2023-05-25T09:27:19;100072.96;;;15.45;65.19
37200;BME280;23096;50.892;16.746;2023-05-25T09:29:47;100077.21;;;15.47;65.05
37200;BME280;23096;50.892;16.746;2023-05-25T09:32:14;100075.98;;;15.47;65.15
37200;BME280;23096;50.892;16.746;2023-05-25T09:34:42;100081.19;;;15.43;65.06
37200;BME280;23096;50.892;16.746;2023-05-25T09:37:12;100079.88;;;15.36;64.93
37200;BME280;23096;50.892;16.746;2023-05-25T09:39:41;100082.30;;;15.31;64.85
37200;BME280;23096;50.892;16.746;2023-05-25T09:42:08;100084.50;;;15.29;64.98
37200;BME280;23096;50.892;16.746;2023-05-25T09:44:34;100077.39;;;15.29;64.94
37200;BME280;23096;50.892;16.746;2023-05-25T09:47:00;100075.90;;;15.31;64.90
37200;BME280;23096;50.892;16.746;2023-05-25T09:49:26;100075.34;;;15.37;65.01
37200;BME280;23096;50.892;16.746;2023-05-25T09:51:52;100074.73;;;15.40;64.76
37200;BME280;23096;50.892;16.746;2023-05-25T09:54:18;100076.31;;;15.30;64.70
37200;BME280;23096;50.892;16.746;2023-05-25T09:56:44;100078.65;;;15.23;64.71
37200;BME280;23096;50.892;16.746;2023-05-25T09:59:10;100080.83;;;15.25;64.86
37200;BME280;23096;50.892;16.746;2023-05-25T10:01:36;100077.34;;;15.26;64.81
37200;BME280;23096;50.892;16.746;2023-05-25T10:04:02;100075.00;;;15.28;64.83
37200;BME280;23096;50.892;16.746;2023-05-25T10:06:27;100074.39;;;15.26;64.81
37200;BME280;23096;50.892;16.746;2023-05-25T10:08:55;100072.77;;;15.23;64.92
37200;BME280;23096;50.892;16.746;2023-05-25T10:11:23;100070.26;;;15.30;65.03
37200;BME280;23096;50.892;16.746;2023-05-25T10:13:49;100072.40;;;15.37;65.04
37200;BME280;23096;50.892;16.746;2023-05-25T10:16:16;100071.77;;;15.44;65.08
37200;BME280;23096;50.892;16.746;2023-05-25T10:18:47;100073.73;;;15.57;65.20
37200;BME280;23096;50.892;16.746;2023-05-25T10:21:17;100078.16;;;15.81;65.47
37200;BME280;23096;50.892;16.746;2023-05-25T10:23:49;100076.70;;;15.96;65.23
37200;BME280;23096;50.892;16.746;2023-05-25T10:26:21;100080.30;;;15.93;64.94
37200;BME280;23096;50.892;16.746;2023-05-25T10:28:55;100076.96;;;15.94;64.70
37200;BME280;23096;50.892;16.746;2023-05-25T10:31:21;100079.14;;;15.95;64.71
37200;BME280;23096;50.892;16.746;2023-05-25T10:33:47;100086.84;;;15.89;64.56
37200;BME280;23096;50.892;16.746;2023-05-25T10:36:13;100084.66;;;15.87;64.52
37200;BME280;23096;50.892;16.746;2023-05-25T10:38:39;100084.52;;;15.86;64.46
37200;BME280;23096;50.892;16.746;2023-05-25T10:41:08;100083.35;;;15.90;64.50
37200;BME280;23096;50.892;16.746;2023-05-25T10:43:34;100082.23;;;16.00;64.66
37200;BME280;23096;50.892;16.746;2023-05-25T10:46:00;100085.28;;;16.15;64.40
37200;BME280;23096;50.892;16.746;2023-05-25T10:48:45;100080.27;;;16.31;64.39
37200;BME280;23096;50.892;16.746;2023-05-25T10:51:11;100081.05;;;16.37;64.21
37200;BME280;23096;50.892;16.746;2023-05-25T10:53:37;100082.45;;;16.37;64.07
37200;BME280;23096;50.892;16.746;2023-05-25T10:56:03;100079.05;;;16.35;63.87
37200;BME280;23096;50.892;16.746;2023-05-25T10:58:30;100078.02;;;16.35;63.93
37200;BME280;23096;50.892;16.746;2023-05-25T11:06:16;100073.55;;;16.58;63.93
37200;BME280;23096;50.892;16.746;2023-05-25T11:08:58;100068.00;;;16.66;63.82
37200;BME280;23096;50.892;16.746;2023-05-25T11:14:26;100069.49;;;16.80;63.64
37200;BME280;23096;50.892;16.746;2023-05-25T11:17:14;100066.27;;;16.78;63.28
37200;BME280;23096;50.892;16.746;2023-05-25T11:19:47;100063.52;;;16.69;63.19
37200;BME280;23096;50.892;16.746;2023-05-25T11:22:17;100062.02;;;16.61;63.22
37200;BME280;23096;50.892;16.746;2023-05-25T11:24:52;100059.55;;;16.57;63.08
37200;BME280;23096;50.892;16.746;2023-05-25T11:27:30;100059.41;;;16.48;62.81
37200;BME280;23096;50.892;16.746;2023-05-25T11:29:57;100055.70;;;16.41;63.04
37200;BME280;23096;50.892;16.746;2023-05-25T11:32:24;100055.70;;;16.42;62.89
37200;BME280;23096;50.892;16.746;2023-05-25T11:34:54;100060.29;;;16.36;62.84
37200;BME280;23096;50.892;16.746;2023-05-25T11:37:22;100056.13;;;16.36;63.07
37200;BME280;23096;50.892;16.746;2023-05-25T11:39:53;100056.27;;;16.44;63.09
37200;BME280;23096;50.892;16.746;2023-05-25T11:42:20;100060.07;;;16.61;63.01
37200;BME280;23096;50.892;16.746;2023-05-25T11:44:46;100057.38;;;16.79;63.18
37200;BME280;23096;50.892;16.746;2023-05-25T11:47:13;100057.84;;;16.76;62.88
37200;BME280;23096;50.892;16.746;2023-05-25T11:49:46;100054.71;;;16.76;63.00
37200;BME280;23096;50.892;16.746;2023-05-25T11:52:15;100055.27;;;16.92;63.04
37200;BME280;23096;50.892;16.746;2023-05-25T11:54:41;100054.57;;;17.11;63.10
37200;BME280;23096;50.892;16.746;2023-05-25T11:57:17;100051.16;;;17.20;62.84
37200;BME280;23096;50.892;16.746;2023-05-25T11:59:49;100045.45;;;17.32;62.96
37200;BME280;23096;50.892;16.746;2023-05-25T12:02:15;100045.15;;;17.49;62.92
37200;BME280;23096;50.892;16.746;2023-05-25T12:04:59;100045.21;;;17.51;62.56
37200;BME280;23096;50.892;16.746;2023-05-25T12:07:29;100047.95;;;17.41;62.41
37200;BME280;23096;50.892;16.746;2023-05-25T12:10:11;100047.52;;;17.35;62.27
37200;BME280;23096;50.892;16.746;2023-05-25T12:12:47;100047.41;;;17.26;62.16
37200;BME280;23096;50.892;16.746;2023-05-25T12:15:15;100045.60;;;17.17;62.05
37200;BME280;23096;50.892;16.746;2023-05-25T12:17:43;100044.97;;;17.16;62.11
37200;BME280;23096;50.892;16.746;2023-05-25T12:20:10;100038.00;;;17.20;62.14
37200;BME280;23096;50.892;16.746;2023-05-25T12:22:37;100040.08;;;17.17;62.03
37200;BME280;23096;50.892;16.746;2023-05-25T12:25:05;100037.65;;;17.09;62.01
37200;BME280;23096;50.892;16.746;2023-05-25T12:27:31;100038.48;;;17.17;62.06
37200;BME280;23096;50.892;16.746;2023-05-25T12:29:57;100033.90;;;17.26;62.11
37200;BME280;23096;50.892;16.746;2023-05-25T12:32:23;100029.71;;;17.34;62.03
37200;BME280;23096;50.892;16.746;2023-05-25T12:34:49;100032.13;;;17.41;62.05
37200;BME280;23096;50.892;16.746;2023-05-25T12:37:19;100030.40;;;17.49;62.07
37200;BME280;23096;50.892;16.746;2023-05-25T12:39:45;100025.63;;;17.54;61.90
37200;BME280;23096;50.892;16.746;2023-05-25T12:42:14;100027.35;;;17.58;61.83
37200;BME280;23096;50.892;16.746;2023-05-25T12:44:41;100028.34;;;17.55;61.82
37200;BME280;23096;50.892;16.746;2023-05-25T12:49:43;100023.59;;;17.39;61.65
37200;BME280;23096;50.892;16.746;2023-05-25T12:52:10;100021.90;;;17.34;61.66
37200;BME280;23096;50.892;16.746;2023-05-25T12:54:55;100013.48;;;17.39;61.67
37200;BME280;23096;50.892;16.746;2023-05-25T12:57:20;100003.84;;;17.49;61.70
37200;BME280;23096;50.892;16.746;2023-05-25T12:59:46;100002.15;;;17.55;61.47
37200;BME280;23096;50.892;16.746;2023-05-25T13:02:13;100006.52;;;17.58;61.69